sensor_id;sensor_type;location;lat;lon;timestamp;pressure;altitude;pressure_sealevel;temperature;humidity
23363;BME280;11853;48.080;11.960;2023-06-19T00:01:54;94583.22;;;20.91;55.37
23363;BME280;11853;48.080;11.960;2023-06-19T00:04:20;94590.50;;;20.90;55.34
23363;BME280;11853;48.080;11.960;2023-06-19T00:06:46;94592.56;;;20.88;55.34
23363;BME280;11853;48.080;11.960;2023-06-19T00:09:11;94598.41;;;20.85;55.64
23363;BME280;11853;48.080;11.960;2023-06-19T00:11:38;94587.63;;;20.85;55.86
23363;BME280;11853;48.080;11.960;2023-06-19T00:14:04;94590.13;;;20.87;55.80
23363;BME280;11853;48.080;11.960;2023-06-19T00:16:30;94588.84;;;20.89;55.38
23363;BME280;11853;48.080;11.960;2023-06-19T00:18:56;94581.56;;;20.90;55.90
23363;BME280;11853;48.080;11.960;2023-06-19T00:21:23;94583.00;;;20.92;57.24
23363;BME280;11853;48.080;11.960;2023-06-19T00:23:52;94588.41;;;20.92;56.91
23363;BME280;11853;48.080;11.960;2023-06-19T00:26:18;94579.09;;;20.88;56.57
23363;BME280;11853;48.080;11.960;2023-06-19T00:28:53;94581.78;;;20.88;55.91
23363;BME280;11853;48.080;11.960;2023-06-19T00:31:19;94577.91;;;20.84;56.18
23363;BME280;11853;48.080;11.960;2023-06-19T00:33:45;94577.28;;;20.82;56.39
23363;BME280;11853;48.080;11.960;2023-06-19T00:36:15;94582.69;;;20.82;56.79
23363;BME280;11853;48.080;11.960;2023-06-19T00:38:41;94578.09;;;20.83;56.98
23363;BME280;11853;48.080;11.960;2023-06-19T00:41:08;94572.94;;;20.81;56.53
23363;BME280;11853;48.080;11.960;2023-06-19T00:43:34;94577.91;;;20.84;56.29
23363;BME280;11853;48.080;11.960;2023-06-19T00:46:01;94578.97;;;20.83;56.88
23363;BME280;11853;48.080;11.960;2023-06-19T00:48:28;94578.97;;;20.83;57.57
23363;BME280;11853;48.080;11.960;2023-06-19T00:50:56;94576.25;;;20.83;56.87
23363;BME280;11853;48.080;11.960;2023-06-19T00:53:23;94569.19;;;20.82;56.29
23363;BME280;11853;48.080;11.960;2023-06-19T00:55:50;94568.59;;;20.80;56.50
23363;BME280;11853;48.080;11.960;2023-06-19T00:58:17;94572.72;;;20.83;56.65
23363;BME280;11853;48.080;11.960;2023-06-19T01:00:43;94573.56;;;20.83;56.58
23363;BME280;11853;48.080;11.960;2023-06-19T01:03:09;94570.88;;;20.83;56.23
23363;BME280;11853;48.080;11.960;2023-06-19T01:05:35;94574.13;;;20.85;57.10
23363;BME280;11853;48.080;11.960;2023-06-19T01:08:03;94574.38;;;20.84;57.54
23363;BME280;11853;48.080;11.960;2023-06-19T01:10:43;94577.91;;;20.84;57.55
23363;BME280;11853;48.080;11.960;2023-06-19T01:13:25;94571.88;;;20.82;58.72
23363;BME280;11853;48.080;11.960;2023-06-19T01:15:53;94576.91;;;20.79;58.39
23363;BME280;11853;48.080;11.960;2023-06-19T01:18:20;94580.44;;;20.79;58.75
23363;BME280;11853;48.080;11.960;2023-06-19T01:20:48;94579.38;;;20.80;58.02
23363;BME280;11853;48.080;11.960;2023-06-19T01:23:14;94575.66;;;20.81;57.46
23363;BME280;11853;48.080;11.960;2023-06-19T01:25:40;94586.00;;;20.84;56.89
23363;BME280;11853;48.080;11.960;2023-06-19T01:28:08;94579.53;;;20.85;56.31
23363;BME280;11853;48.080;11.960;2023-06-19T01:30:35;94583.50;;;20.83;55.97
23363;BME280;11853;48.080;11.960;2023-06-19T01:33:04;94573.16;;;20.80;58.09
23363;BME280;11853;48.080;11.960;2023-06-19T01:35:36;94572.13;;;20.81;57.92
23363;BME280;11853;48.080;11.960;2023-06-19T01:38:02;94577.28;;;20.82;59.20
23363;BME280;11853;48.080;11.960;2023-06-19T01:40:30;94574.81;;;20.81;58.92
23363;BME280;11853;48.080;11.960;2023-06-19T01:42:58;94578.34;;;20.81;59.72
23363;BME280;11853;48.080;11.960;2023-06-19T01:45:28;94582.31;;;20.79;59.82
23363;BME280;11853;48.080;11.960;2023-06-19T01:47:54;94574.81;;;20.81;60.04
23363;BME280;11853;48.080;11.960;2023-06-19T01:50:23;94579.38;;;20.80;60.39
23363;BME280;11853;48.080;11.960;2023-06-19T01:52:50;94581.50;;;20.78;60.45
23363;BME280;11853;48.080;11.960;2023-06-19T01:55:16;94574.44;;;20.77;60.61
23363;BME280;11853;48.080;11.960;2023-06-19T01:57:42;94581.94;;;20.75;61.74
23363;BME280;11853;48.080;11.960;2023-06-19T02:00:08;94578.19;;;20.76;61.73
23363;BME280;11853;48.080;11.960;2023-06-19T02:02:36;94581.31;;;20.73;62.82
23363;BME280;11853;48.080;11.960;2023-06-19T02:05:01;94576.38;;;20.70;62.40
23363;BME280;11853;48.080;11.960;2023-06-19T02:07:27;94583.84;;;20.68;60.89
23363;BME280;11853;48.080;11.960;2023-06-19T02:09:53;94581.41;;;20.66;62.03
23363;BME280;11853;48.080;11.960;2023-06-19T02:12:19;94584.09;;;20.66;63.22
23363;BME280;11853;48.080;11.960;2023-06-19T02:14:45;94587.59;;;20.67;62.59
23363;BME280;11853;48.080;11.960;2023-06-19T02:17:10;94576.22;;;20.65;63.03
23363;BME280;11853;48.080;11.960;2023-06-19T02:19:36;94589.06;;;20.63;61.97
23363;BME280;11853;48.080;11.960;2023-06-19T02:22:02;94581.69;;;20.58;62.42
23363;BME280;11853;48.080;11.960;2023-06-19T02:24:27;94580.84;;;20.58;62.94
23363;BME280;11853;48.080;11.960;2023-06-19T02:26:53;94587.50;;;20.55;62.76
23363;BME280;11853;48.080;11.960;2023-06-19T02:29:19;94586.69;;;20.55;61.88
23363;BME280;11853;48.080;11.960;2023-06-19T02:31:45;94580.44;;;20.54;63.98
23363;BME280;11853;48.080;11.960;2023-06-19T02:34:11;94578.00;;;20.53;64.20
23363;BME280;11853;48.080;11.960;2023-06-19T02:36:36;94580.88;;;20.51;64.28
23363;BME280;11853;48.080;11.960;2023-06-19T02:39:05;94588.38;;;20.49;64.29
23363;BME280;11853;48.080;11.960;2023-06-19T02:41:33;94589.63;;;20.46;64.13
23363;BME280;11853;48.080;11.960;2023-06-19T02:43:59;94581.53;;;20.46;64.38
23363;BME280;11853;48.080;11.960;2023-06-19T02:46:24;94581.75;;;20.45;63.89
23363;BME280;11853;48.080;11.960;2023-06-19T02:48:50;94574.72;;;20.44;65.62
23363;BME280;11853;48.080;11.960;2023-06-19T02:51:16;94571.66;;;20.40;64.87
23363;BME280;11853;48.080;11.960;2023-06-19T02:53:41;94581.38;;;20.41;63.80
23363;BME280;11853;48.080;11.960;2023-06-19T02:56:09;94577.63;;;20.42;62.76
23363;BME280;11853;48.080;11.960;2023-06-19T02:58:35;94586.53;;;20.43;63.12
23363;BME280;11853;48.080;11.960;2023-06-19T03:01:03;94592.16;;;20.41;63.79
23363;BME280;11853;48.080;11.960;2023-06-19T03:03:32;94588.41;;;20.42;63.59
23363;BME280;11853;48.080;11.960;2023-06-19T03:06:04;94591.09;;;20.42;63.56
23363;BME280;11853;48.080;11.960;2023-06-19T03:08:32;94596.94;;;20.39;63.07
23363;BME280;11853;48.080;11.960;2023-06-19T03:10:58;94596.31;;;20.37;63.10
23363;BME280;11853;48.080;11.960;2023-06-19T03:13:23;94604.03;;;20.34;62.73
23363;BME280;11853;48.080;11.960;2023-06-19T03:15:49;94603.63;;;20.30;62.57
23363;BME280;11853;48.080;11.960;2023-06-19T03:21:36;94606.34;;;20.30;62.56
23363;BME280;11853;48.080;11.960;2023-06-19T03:24:02;94611.28;;;20.33;63.05
23363;BME280;11853;48.080;11.960;2023-06-19T03:26:28;94618.31;;;20.34;62.96
23363;BME280;11853;48.080;11.960;2023-06-19T03:28:53;94614.22;;;20.32;63.04
23363;BME280;11853;48.080;11.960;2023-06-19T03:31:19;94621.25;;;20.33;63.60
23363;BME280;11853;48.080;11.960;2023-06-19T03:33:44;94620.44;;;20.32;63.40
23363;BME280;11853;48.080;11.960;2023-06-19T03:36:10;94622.31;;;20.32;62.45
23363;BME280;11853;48.080;11.960;2023-06-19T03:38:36;94624.81;;;20.27;61.75
23363;BME280;11853;48.080;11.960;2023-06-19T03:41:02;94628.53;;;20.25;61.36
23363;BME280;11853;48.080;11.960;2023-06-19T03:43:27;94627.09;;;20.23;61.55
23363;BME280;11853;48.080;11.960;2023-06-19T03:45:53;94634.97;;;20.24;61.66
23363;BME280;11853;48.080;11.960;2023-06-19T03:48:19;94637.84;;;20.30;62.36
23363;BME280;11853;48.080;11.960;2023-06-19T03:50:44;94634.34;;;20.29;61.21
23363;BME280;11853;48.080;11.960;2023-06-19T03:53:10;94634.09;;;20.31;62.57
23363;BME280;11853;48.080;11.960;2023-06-19T03:55:36;94634.09;;;20.31;63.32
23363;BME280;11853;48.080;11.960;2023-06-19T03:58:01;94635.78;;;20.32;64.04
23363;BME280;11853;48.080;11.960;2023-06-19T04:00:27;94632.47;;;20.30;62.70
23363;BME280;11853;48.080;11.960;2023-06-19T04:02:53;94634.53;;;20.28;63.90
23363;BME280;11853;48.080;11.960;2023-06-19T04:05:18;94631.66;;;20.29;64.88
23363;BME280;11853;48.080;11.960;2023-06-19T04:07:45;94640.53;;;20.30;64.36
23363;BME280;11853;48.080;11.960;2023-06-19T04:10:11;94642.84;;;20.26;64.30
23363;BME280;11853;48.080;11.960;2023-06-19T04:12:37;94642.84;;;20.26;65.12
23363;BME280;11853;48.080;11.960;2023-06-19T04:15:03;94648.66;;;20.23;65.97
23363;BME280;11853;48.080;11.960;2023-06-19T04:17:29;94651.59;;;20.21;66.40
23363;BME280;11853;48.080;11.960;2023-06-19T04:19:55;94659.88;;;20.20;66.19
23363;BME280;11853;48.080;11.960;2023-06-19T04:22:20;94656.78;;;20.16;66.24
23363;BME280;11853;48.080;11.960;2023-06-19T04:24:46;94652.84;;;20.19;67.21
23363;BME280;11853;48.080;11.960;2023-06-19T04:27:12;94654.09;;;20.16;67.54
23363;BME280;11853;48.080;11.960;2023-06-19T04:29:37;94659.91;;;20.13;66.90
23363;BME280;11853;48.080;11.960;2023-06-19T04:32:03;94664.44;;;20.19;66.76
23363;BME280;11853;48.080;11.960;2023-06-19T04:34:36;94661.34;;;20.16;67.23
23363;BME280;11853;48.080;11.960;2023-06-19T04:37:02;94662.59;;;20.13;67.42
23363;BME280;11853;48.080;11.960;2023-06-19T04:39:28;94661.34;;;20.16;67.52
23363;BME280;11853;48.080;11.960;2023-06-19T04:41:54;94671.31;;;20.15;67.05
23363;BME280;11853;48.080;11.960;2023-06-19T04:44:19;94675.03;;;20.14;66.40
23363;BME280;11853;48.080;11.960;2023-06-19T04:46:45;94675.25;;;20.13;66.24
23363;BME280;11853;48.080;11.960;2023-06-19T04:49:12;94681.09;;;20.10;66.20
23363;BME280;11853;48.080;11.960;2023-06-19T04:51:38;94680.25;;;20.09;66.20
23363;BME280;11853;48.080;11.960;2023-06-19T04:54:04;94686.47;;;20.10;66.43
23363;BME280;11853;48.080;11.960;2023-06-19T04:56:30;94687.69;;;20.14;66.57
23363;BME280;11853;48.080;11.960;2023-06-19T04:58:56;94681.28;;;20.15;67.05
23363;BME280;11853;48.080;11.960;2023-06-19T05:01:25;94684.56;;;20.17;67.10
23363;BME280;11853;48.080;11.960;2023-06-19T05:03:54;94690.56;;;20.19;68.01
23363;BME280;11853;48.080;11.960;2023-06-19T05:06:23;94694.06;;;20.19;68.28
23363;BME280;11853;48.080;11.960;2023-06-19T05:08:49;94697.81;;;20.18;68.83
23363;BME280;11853;48.080;11.960;2023-06-19T05:11:15;94701.56;;;20.17;68.98
23363;BME280;11853;48.080;11.960;2023-06-19T05:13:41;94709.22;;;20.20;68.94
23363;BME280;11853;48.080;11.960;2023-06-19T05:16:07;94707.09;;;20.22;69.55
23363;BME280;11853;48.080;11.960;2023-06-19T05:18:32;94712.91;;;20.26;69.59
23363;BME280;11853;48.080;11.960;2023-06-19T05:20:58;94712.91;;;20.26;69.29
23363;BME280;11853;48.080;11.960;2023-06-19T05:23:24;94722.22;;;20.30;68.76
23363;BME280;11853;48.080;11.960;2023-06-19T05:25:49;94725.53;;;20.32;69.03
23363;BME280;11853;48.080;11.960;2023-06-19T05:28:16;94729.84;;;20.33;69.57
23363;BME280;11853;48.080;11.960;2023-06-19T05:30:41;94726.97;;;20.35;70.12
23363;BME280;11853;48.080;11.960;2023-06-19T05:33:07;94732.72;;;20.38;70.78
23363;BME280;11853;48.080;11.960;2023-06-19T05:35:33;94729.22;;;20.38;70.69
23363;BME280;11853;48.080;11.960;2023-06-19T05:37:58;94730.03;;;20.38;71.24
23363;BME280;11853;48.080;11.960;2023-06-19T05:40:24;94730.03;;;20.38;71.34
23363;BME280;11853;48.080;11.960;2023-06-19T05:42:50;94734.38;;;20.39;70.43
23363;BME280;11853;48.080;11.960;2023-06-19T05:45:16;94741.00;;;20.43;70.38
23363;BME280;11853;48.080;11.960;2023-06-19T05:47:41;94738.31;;;20.43;70.62
23363;BME280;11853;48.080;11.960;2023-06-19T05:50:07;94735.75;;;20.48;72.05
23363;BME280;11853;48.080;11.960;2023-06-19T05:52:33;94743.03;;;20.55;72.26
23363;BME280;11853;48.080;11.960;2023-06-19T05:54:59;94743.81;;;20.62;71.98
23363;BME280;11853;48.080;11.960;2023-06-19T05:57:25;94747.31;;;20.69;71.05
23363;BME280;11853;48.080;11.960;2023-06-19T05:59:51;94750.78;;;20.76;70.14
23363;BME280;11853;48.080;11.960;2023-06-19T06:02:19;94754.03;;;20.85;70.12
23363;BME280;11853;48.080;11.960;2023-06-19T06:04:45;94758.53;;;20.91;70.43
23363;BME280;11853;48.080;11.960;2023-06-19T06:07:11;94765.97;;;20.96;70.34
23363;BME280;11853;48.080;11.960;2023-06-19T06:09:37;94765.72;;;21.04;70.72
23363;BME280;11853;48.080;11.960;2023-06-19T06:12:04;94771.66;;;21.12;70.36
23363;BME280;11853;48.080;11.960;2023-06-19T06:14:30;94766.22;;;21.19;70.38
23363;BME280;11853;48.080;11.960;2023-06-19T06:16:55;94776.56;;;21.22;69.80
23363;BME280;11853;48.080;11.960;2023-06-19T06:19:21;94771.53;;;21.26;69.11
23363;BME280;11853;48.080;11.960;2023-06-19T06:21:50;94770.28;;;21.28;68.20
23363;BME280;11853;48.080;11.960;2023-06-19T06:24:16;94774.78;;;21.34;67.60
23363;BME280;11853;48.080;11.960;2023-06-19T06:26:41;94775.22;;;21.38;67.24
23363;BME280;11853;48.080;11.960;2023-06-19T06:29:08;94770.19;;;21.42;67.43
23363;BME280;11853;48.080;11.960;2023-06-19T06:31:38;94764.13;;;21.46;67.90
23363;BME280;11853;48.080;11.960;2023-06-19T06:34:04;94766.41;;;21.49;67.60
23363;BME280;11853;48.080;11.960;2023-06-19T06:36:29;94774.63;;;21.54;67.53
23363;BME280;11853;48.080;11.960;2023-06-19T06:38:55;94773.38;;;21.57;67.32
23363;BME280;11853;48.080;11.960;2023-06-19T06:41:21;94771.28;;;21.59;66.86
23363;BME280;11853;48.080;11.960;2023-06-19T06:43:46;94781.19;;;21.65;66.66
23363;BME280;11853;48.080;11.960;2023-06-19T06:46:12;94782.41;;;21.69;66.19
23363;BME280;11853;48.080;11.960;2023-06-19T06:48:38;94777.81;;;21.70;66.00
23363;BME280;11853;48.080;11.960;2023-06-19T06:51:03;94787.34;;;21.72;66.16
23363;BME280;11853;48.080;11.960;2023-06-19T06:53:29;94784.19;;;21.75;66.49
23363;BME280;11853;48.080;11.960;2023-06-19T06:55:58;94795.00;;;21.75;67.08
23363;BME280;11853;48.080;11.960;2023-06-19T06:58:25;94793.50;;;21.79;66.64
23363;BME280;11853;48.080;11.960;2023-06-19T07:00:50;94795.75;;;21.82;66.09
23363;BME280;11853;48.080;11.960;2023-06-19T07:03:17;94795.31;;;21.86;65.75
23363;BME280;11853;48.080;11.960;2023-06-19T07:05:43;94798.63;;;21.88;65.86
23363;BME280;11853;48.080;11.960;2023-06-19T07:08:09;94800.41;;;21.94;65.23
23363;BME280;11853;48.080;11.960;2023-06-19T07:10:35;94804.34;;;21.98;65.21
23363;BME280;11853;48.080;11.960;2023-06-19T07:13:01;94809.50;;;21.99;65.19
23363;BME280;11853;48.080;11.960;2023-06-19T07:15:26;94807.78;;;22.05;64.38
23363;BME280;11853;48.080;11.960;2023-06-19T07:17:52;94814.41;;;22.09;64.26
23363;BME280;11853;48.080;11.960;2023-06-19T07:20:18;94813.53;;;22.09;64.27
23363;BME280;11853;48.080;11.960;2023-06-19T07:22:44;94821.44;;;22.10;64.81
23363;BME280;11853;48.080;11.960;2023-06-19T07:25:11;94817.22;;;22.14;64.77
23363;BME280;11853;48.080;11.960;2023-06-19T07:27:37;94817.66;;;22.18;64.98
23363;BME280;11853;48.080;11.960;2023-06-19T07:30:03;94820.47;;;22.23;64.70
23363;BME280;11853;48.080;11.960;2023-06-19T07:32:29;94821.47;;;22.29;64.94
23363;BME280;11853;48.080;11.960;2023-06-19T07:34:54;94817.84;;;22.35;64.77
23363;BME280;11853;48.080;11.960;2023-06-19T07:37:20;94823.41;;;22.40;64.96
23363;BME280;11853;48.080;11.960;2023-06-19T07:39:47;94822.50;;;22.46;65.36
23363;BME280;11853;48.080;11.960;2023-06-19T07:42:14;94828.06;;;22.51;65.09
23363;BME280;11853;48.080;11.960;2023-06-19T07:44:41;94820.31;;;22.55;65.30
23363;BME280;11853;48.080;11.960;2023-06-19T07:47:07;94821.28;;;22.60;65.17
23363;BME280;11853;48.080;11.960;2023-06-19T07:49:34;94828.34;;;22.61;64.92
23363;BME280;11853;48.080;11.960;2023-06-19T07:51:59;94830.00;;;22.62;65.46
23363;BME280;11853;48.080;11.960;2023-06-19T07:54:25;94830.81;;;22.63;65.63
23363;BME280;11853;48.080;11.960;2023-06-19T07:56:51;94833.31;;;22.64;65.73
23363;BME280;11853;48.080;11.960;2023-06-19T07:59:17;94840.34;;;22.65;66.29
23363;BME280;11853;48.080;11.960;2023-06-19T08:01:44;94841.78;;;22.68;66.00
23363;BME280;11853;48.080;11.960;2023-06-19T08:04:10;94845.09;;;22.70;65.72
23363;BME280;11853;48.080;11.960;2023-06-19T08:06:35;94842.75;;;22.74;65.30
23363;BME280;11853;48.080;11.960;2023-06-19T08:09:02;94841.81;;;22.80;66.61
23363;BME280;11853;48.080;11.960;2023-06-19T08:11:28;94835.50;;;22.86;66.71
23363;BME280;11853;48.080;11.960;2023-06-19T08:13:54;94833.00;;;23.03;67.03
23363;BME280;11853;48.080;11.960;2023-06-19T08:16:19;94824.94;;;23.26;68.15
23363;BME280;11853;48.080;11.960;2023-06-19T08:18:46;94826.41;;;23.52;67.04
23363;BME280;11853;48.080;11.960;2023-06-19T08:21:12;94827.06;;;23.78;67.16
23363;BME280;11853;48.080;11.960;2023-06-19T08:23:38;94827.38;;;24.05;66.97
23363;BME280;11853;48.080;11.960;2023-06-19T08:26:05;94828.66;;;24.26;64.35
23363;BME280;11853;48.080;11.960;2023-06-19T08:28:33;94832.75;;;24.40;63.08
23363;BME280;11853;48.080;11.960;2023-06-19T08:30:59;94825.78;;;24.56;63.14
23363;BME280;11853;48.080;11.960;2023-06-19T08:33:25;94819.84;;;24.71;63.62
23363;BME280;11853;48.080;11.960;2023-06-19T08:35:51;94825.22;;;24.83;63.52
23363;BME280;11853;48.080;11.960;2023-06-19T08:38:16;94829.28;;;24.97;62.66
23363;BME280;11853;48.080;11.960;2023-06-19T08:40:44;94827.34;;;25.09;61.70
23363;BME280;11853;48.080;11.960;2023-06-19T08:43:11;94826.84;;;25.24;61.65
23363;BME280;11853;48.080;11.960;2023-06-19T08:45:37;94827.00;;;25.34;60.13
23363;BME280;11853;48.080;11.960;2023-06-19T08:48:04;94830.97;;;25.44;59.08
23363;BME280;11853;48.080;11.960;2023-06-19T08:50:32;94828.59;;;25.47;57.48
23363;BME280;11853;48.080;11.960;2023-06-19T08:52:58;94831.53;;;25.46;58.05
23363;BME280;11853;48.080;11.960;2023-06-19T08:55:24;94836.97;;;25.46;57.52
23363;BME280;11853;48.080;11.960;2023-06-19T08:57:51;94830.91;;;25.38;56.62
23363;BME280;11853;48.080;11.960;2023-06-19T09:00:28;94828.66;;;25.35;55.54
23363;BME280;11853;48.080;11.960;2023-06-19T09:03:02;94831.94;;;25.37;54.42
23363;BME280;11853;48.080;11.960;2023-06-19T09:05:28;94829.91;;;25.45;54.57
23363;BME280;11853;48.080;11.960;2023-06-19T09:07:57;94833.84;;;25.54;54.38
23363;BME280;11853;48.080;11.960;2023-06-19T09:10:23;94824.97;;;25.58;53.67
23363;BME280;11853;48.080;11.960;2023-06-19T09:13:00;94827.13;;;25.73;54.51
23363;BME280;11853;48.080;11.960;2023-06-19T09:15:28;94838.16;;;25.83;54.79
23363;BME280;11853;48.080;11.960;2023-06-19T09:18:10;94829.09;;;25.95;54.03
23363;BME280;11853;48.080;11.960;2023-06-19T09:20:40;94821.31;;;26.03;54.15
23363;BME280;11853;48.080;11.960;2023-06-19T09:23:10;94819.00;;;26.12;51.84
23363;BME280;11853;48.080;11.960;2023-06-19T09:25:52;94828.00;;;26.13;51.84
23363;BME280;11853;48.080;11.960;2023-06-19T09:28:23;94827.00;;;26.19;53.23
23363;BME280;11853;48.080;11.960;2023-06-19T09:33:18;94819.78;;;26.29;52.51
23363;BME280;11853;48.080;11.960;2023-06-19T09:35:44;94831.81;;;26.34;53.86
23363;BME280;11853;48.080;11.960;2023-06-19T09:38:11;94832.13;;;26.37;52.80
23363;BME280;11853;48.080;11.960;2023-06-19T09:40:37;94825.69;;;26.43;52.75
23363;BME280;11853;48.080;11.960;2023-06-19T09:43:04;94823.13;;;26.54;53.00
23363;BME280;11853;48.080;11.960;2023-06-19T09:45:32;94813.13;;;26.59;51.87
23363;BME280;11853;48.080;11.960;2023-06-19T09:48:11;94812.09;;;26.65;51.42
23363;BME280;11853;48.080;11.960;2023-06-19T09:50:55;94821.41;;;26.69;52.07
23363;BME280;11853;48.080;11.960;2023-06-19T09:53:32;94828.00;;;26.73;51.06
23363;BME280;11853;48.080;11.960;2023-06-19T09:55:59;94815.97;;;26.69;50.97
23363;BME280;11853;48.080;11.960;2023-06-19T09:58:40;94820.00;;;26.67;50.85
23363;BME280;11853;48.080;11.960;2023-06-19T10:01:07;94818.94;;;26.68;51.29
23363;BME280;11853;48.080;11.960;2023-06-19T10:03:34;94813.22;;;26.69;52.21
23363;BME280;11853;48.080;11.960;2023-06-19T10:06:04;94812.19;;;26.70;52.75
23363;BME280;11853;48.080;11.960;2023-06-19T10:08:40;94814.38;;;26.73;53.21
23363;BME280;11853;48.080;11.960;2023-06-19T10:11:06;94807.28;;;26.72;52.27
23363;BME280;11853;48.080;11.960;2023-06-19T10:13:37;94804.06;;;26.76;53.07
23363;BME280;11853;48.080;11.960;2023-06-19T10:16:22;94809.56;;;26.81;53.50
23363;BME280;11853;48.080;11.960;2023-06-19T10:18:48;94811.75;;;26.84;51.87
23363;BME280;11853;48.080;11.960;2023-06-19T10:21:21;94808.03;;;26.90;52.90
23363;BME280;11853;48.080;11.960;2023-06-19T10:23:54;94793.59;;;26.89;52.30
23363;BME280;11853;48.080;11.960;2023-06-19T10:26:34;94796.63;;;26.93;53.66
23363;BME280;11853;48.080;11.960;2023-06-19T10:29:01;94797.75;;;26.97;52.84
23363;BME280;11853;48.080;11.960;2023-06-19T10:31:27;94794.00;;;27.03;53.26
23363;BME280;11853;48.080;11.960;2023-06-19T10:33:55;94789.13;;;27.05;53.82
23363;BME280;11853;48.080;11.960;2023-06-19T10:36:22;94792.72;;;27.11;52.95
23363;BME280;11853;48.080;11.960;2023-06-19T10:38:49;94786.47;;;27.10;51.88
23363;BME280;11853;48.080;11.960;2023-06-19T10:41:19;94785.44;;;27.16;53.30
23363;BME280;11853;48.080;11.960;2023-06-19T10:44:05;94790.38;;;27.20;52.23
23363;BME280;11853;48.080;11.960;2023-06-19T10:46:35;94788.22;;;27.22;52.60
23363;BME280;11853;48.080;11.960;2023-06-19T10:49:02;94788.53;;;27.25;52.95
23363;BME280;11853;48.080;11.960;2023-06-19T10:51:36;94782.28;;;27.30;51.49
23363;BME280;11853;48.080;11.960;2023-06-19T10:54:03;94790.97;;;27.27;50.52
23363;BME280;11853;48.080;11.960;2023-06-19T10:56:29;94788.22;;;27.22;50.91
23363;BME280;11853;48.080;11.960;2023-06-19T10:59:06;94786.06;;;27.24;49.18
23363;BME280;11853;48.080;11.960;2023-06-19T11:01:39;94791.50;;;27.24;49.87
23363;BME280;11853;48.080;11.960;2023-06-19T11:04:06;94791.78;;;27.22;50.36
23363;BME280;11853;48.080;11.960;2023-06-19T11:06:32;94782.78;;;27.22;51.67
23363;BME280;11853;48.080;11.960;2023-06-19T11:08:58;94778.16;;;27.22;51.55
23363;BME280;11853;48.080;11.960;2023-06-19T11:11:41;94780.06;;;27.22;51.62
23363;BME280;11853;48.080;11.960;2023-06-19T11:14:08;94770.28;;;27.26;50.24
23363;BME280;11853;48.080;11.960;2023-06-19T11:16:37;94773.00;;;27.26;51.93
23363;BME280;11853;48.080;11.960;2023-06-19T11:19:03;94768.63;;;27.25;50.52
23363;BME280;11853;48.080;11.960;2023-06-19T11:21:33;94769.69;;;27.24;50.63
23363;BME280;11853;48.080;11.960;2023-06-19T11:24:11;94768.06;;;27.23;49.76
23363;BME280;11853;48.080;11.960;2023-06-19T11:26:47;94765.06;;;27.24;50.78
23363;BME280;11853;48.080;11.960;2023-06-19T11:29:29;94764.81;;;27.26;50.83
23363;BME280;11853;48.080;11.960;2023-06-19T11:32:30;94758.56;;;27.25;49.00
23363;BME280;11853;48.080;11.960;2023-06-19T11:35:08;94759.13;;;27.27;47.88
23363;BME280;11853;48.080;11.960;2023-06-19T11:37:40;94752.53;;;27.23;49.68
23363;BME280;11853;48.080;11.960;2023-06-19T11:40:42;94746.28;;;27.23;49.58
23363;BME280;11853;48.080;11.960;2023-06-19T11:43:37;94742.78;;;27.27;49.41
23363;BME280;11853;48.080;11.960;2023-06-19T11:46:16;94747.09;;;27.23;49.37
23363;BME280;11853;48.080;11.960;2023-06-19T11:48:44;94750.09;;;27.22;49.43
23363;BME280;11853;48.080;11.960;2023-06-19T11:51:10;94742.44;;;27.24;49.88
23363;BME280;11853;48.080;11.960;2023-06-19T11:53:35;94754.16;;;27.24;49.99
23363;BME280;11853;48.080;11.960;2023-06-19T11:56:01;94745.75;;;27.26;47.42
23363;BME280;11853;48.080;11.960;2023-06-19T11:58:27;94744.13;;;27.25;46.74
23363;BME280;11853;48.080;11.960;2023-06-19T12:00:53;94732.06;;;27.21;47.75
23363;BME280;11853;48.080;11.960;2023-06-19T12:03:19;94735.91;;;27.20;48.98
23363;BME280;11853;48.080;11.960;2023-06-19T12:05:44;94739.78;;;27.29;47.58
23363;BME280;11853;48.080;11.960;2023-06-19T12:08:10;94734.31;;;27.29;48.19
23363;BME280;11853;48.080;11.960;2023-06-19T12:10:36;94740.34;;;27.31;49.09
23363;BME280;11853;48.080;11.960;2023-06-19T12:13:02;94735.72;;;27.31;48.69
23363;BME280;11853;48.080;11.960;2023-06-19T12:15:28;94730.84;;;27.33;50.00
23363;BME280;11853;48.080;11.960;2023-06-19T12:17:53;94733.84;;;27.37;50.09
23363;BME280;11853;48.080;11.960;2023-06-19T12:20:19;94730.06;;;27.43;49.80
23363;BME280;11853;48.080;11.960;2023-06-19T12:22:45;94733.09;;;27.42;49.10
23363;BME280;11853;48.080;11.960;2023-06-19T12:25:11;94723.09;;;27.57;47.00
23363;BME280;11853;48.080;11.960;2023-06-19T12:27:39;94732.91;;;27.58;46.02
23363;BME280;11853;48.080;11.960;2023-06-19T12:30:06;94729.41;;;27.63;46.42
23363;BME280;11853;48.080;11.960;2023-06-19T12:32:33;94722.53;;;27.55;46.40
23363;BME280;11853;48.080;11.960;2023-06-19T12:34:59;94726.31;;;27.49;47.08
23363;BME280;11853;48.080;11.960;2023-06-19T12:37:25;94727.44;;;27.58;46.91
23363;BME280;11853;48.080;11.960;2023-06-19T12:39:50;94725.81;;;27.57;47.56
23363;BME280;11853;48.080;11.960;2023-06-19T12:42:16;94723.94;;;27.63;47.94
23363;BME280;11853;48.080;11.960;2023-06-19T12:44:43;94714.63;;;27.54;47.34
23363;BME280;11853;48.080;11.960;2023-06-19T12:47:12;94712.91;;;27.43;47.89
23363;BME280;11853;48.080;11.960;2023-06-19T12:49:38;94719.44;;;27.42;48.86
23363;BME280;11853;48.080;11.960;2023-06-19T12:52:09;94703.88;;;27.37;49.08
23363;BME280;11853;48.080;11.960;2023-06-19T12:54:37;94702.19;;;27.31;49.10
23363;BME280;11853;48.080;11.960;2023-06-19T12:57:05;94700.00;;;27.28;48.97
23363;BME280;11853;48.080;11.960;2023-06-19T12:59:33;94699.38;;;27.21;48.90